createdAt,value
2018-12-23T00:01:07.861Z,7.33
2018-12-23T00:03:34.324Z,7.40
2018-12-23T00:06:00.757Z,7.30
2018-12-23T00:08:27.260Z,7.33
2018-12-23T00:10:53.678Z,7.47
2018-12-23T00:13:20.120Z,7.87
2018-12-23T00:15:46.681Z,7.80
2018-12-23T00:18:14.414Z,6.47
2018-12-23T00:20:41.020Z,8.20
2018-12-23T00:23:07.556Z,7.83
2018-12-23T00:25:34.378Z,7.50
2018-12-23T00:28:00.807Z,7.33
2018-12-23T00:30:27.278Z,7.47
2018-12-23T00:32:53.779Z,6.80
2018-12-23T00:35:20.745Z,7.67
2018-12-23T00:37:47.353Z,8.53
2018-12-23T00:40:13.812Z,7.37
2018-12-23T00:42:40.363Z,8.63
2018-12-23T00:45:07.045Z,7.20
2018-12-23T00:47:34.348Z,6.90
2018-12-23T00:50:01.659Z,7.70
2018-12-23T00:52:28.160Z,7.03
2018-12-23T00:54:54.622Z,7.53
2018-12-23T00:57:21.036Z,7.53
2018-12-23T00:59:47.450Z,7.70
2018-12-23T01:02:14.347Z,8.30
2018-12-23T01:04:40.837Z,8.23
2018-12-23T01:07:07.398Z,8.23
2018-12-23T01:09:34.015Z,9.00
2018-12-23T01:12:02.432Z,8.77
2018-12-23T01:14:28.995Z,9.43
2018-12-23T01:16:55.375Z,9.73
2018-12-23T01:19:21.850Z,9.40
2018-12-23T01:21:48.312Z,8.47
2018-12-23T01:24:14.809Z,9.43
2018-12-23T01:26:41.186Z,9.60
2018-12-23T01:29:07.636Z,9.30
2018-12-23T01:31:34.017Z,8.93
2018-12-23T01:34:00.487Z,9.63
2018-12-23T01:36:28.883Z,9.10
2018-12-23T01:38:55.370Z,9.23
2018-12-23T01:41:21.798Z,9.30
2018-12-23T01:43:48.295Z,8.70
2018-12-23T01:46:14.839Z,8.97
2018-12-23T01:48:41.404Z,9.07
2018-12-23T01:51:07.860Z,8.57
2018-12-23T01:53:34.304Z,8.50
2018-12-23T01:56:00.767Z,9.53
2018-12-23T01:58:27.545Z,9.07
2018-12-23T02:00:54.019Z,9.00
2018-12-23T02:03:20.500Z,8.30
2018-12-23T02:05:47.957Z,10.33
2018-12-23T02:08:14.550Z,8.40
2018-12-23T02:10:41.055Z,9.70
2018-12-23T02:13:07.466Z,8.93
2018-12-23T02:15:33.958Z,8.77
2018-12-23T02:18:00.480Z,10.10
2018-12-23T02:20:26.980Z,10.27
2018-12-23T02:22:53.442Z,8.97
2018-12-23T02:25:19.778Z,8.77
2018-12-23T02:27:46.562Z,9.50
2018-12-23T02:30:13.060Z,10.33
2018-12-23T02:32:39.506Z,9.10
2018-12-23T02:35:06.088Z,10.87
2018-12-23T02:37:32.755Z,10.77
2018-12-23T02:39:59.277Z,9.47
2018-12-23T02:42:25.761Z,11.10
2018-12-23T02:44:52.264Z,10.47
2018-12-23T02:47:18.679Z,11.17
2018-12-23T02:49:45.121Z,12.13
2018-12-23T02:52:11.747Z,12.33
2018-12-23T02:54:38.251Z,12.40
2018-12-23T02:57:04.740Z,14.07
2018-12-23T02:59:31.234Z,14.57
2018-12-23T03:01:57.712Z,15.23
2018-12-23T03:04:24.141Z,14.87
2018-12-23T03:06:50.637Z,15.20
2018-12-23T03:09:17.080Z,15.87
2018-12-23T03:11:43.540Z,16.23
2018-12-23T03:14:09.997Z,15.97
2018-12-23T03:16:36.409Z,14.37
2018-12-23T03:19:03.293Z,14.97
2018-12-23T03:21:30.123Z,15.33
2018-12-23T03:23:56.561Z,15.50
2018-12-23T03:26:22.997Z,18.40
2018-12-23T03:28:49.429Z,17.50
2018-12-23T03:31:16.081Z,18.00
2018-12-23T03:33:42.769Z,18.57
2018-12-23T03:36:14.975Z,17.27
2018-12-23T03:38:37.706Z,19.50
2018-12-23T03:41:04.201Z,19.30
2018-12-23T03:43:30.702Z,18.90
2018-12-23T03:45:57.523Z,18.73
2018-12-23T03:48:24.127Z,17.80
2018-12-23T03:50:50.689Z,18.83
2018-12-23T03:53:17.403Z,18.53
2018-12-23T03:55:43.880Z,18.50
2018-12-23T03:58:10.333Z,18.73
2018-12-23T04:00:36.814Z,18.47
2018-12-23T04:03:03.375Z,18.83
2018-12-23T04:05:30.240Z,17.70
2018-12-23T04:07:56.669Z,17.27
2018-12-23T04:10:23.119Z,16.13
2018-12-23T04:12:49.504Z,15.03
2018-12-23T04:15:16.072Z,15.80
2018-12-23T04:17:42.588Z,14.93
2018-12-23T04:20:09.015Z,16.20
2018-12-23T04:22:35.450Z,13.97
2018-12-23T04:25:02.029Z,15.30
2018-12-23T04:27:28.858Z,15.13
2018-12-23T04:29:55.655Z,15.00
2018-12-23T04:32:22.081Z,15.13
2018-12-23T04:34:49.616Z,14.37
2018-12-23T04:37:16.363Z,16.33
2018-12-23T04:39:43.815Z,16.03
2018-12-23T04:42:10.594Z,16.13
2018-12-23T04:44:37.073Z,16.60
2018-12-23T04:47:03.681Z,15.93
2018-12-23T04:49:30.318Z,15.17
2018-12-23T04:51:56.828Z,16.27
2018-12-23T04:54:23.648Z,17.33
2018-12-23T04:56:50.137Z,17.00
2018-12-23T04:59:16.709Z,17.53
2018-12-23T05:01:43.590Z,17.63
2018-12-23T05:04:10.025Z,18.03
2018-12-23T05:06:43.197Z,16.90
2018-12-23T05:09:05.135Z,16.90
2018-12-23T05:11:31.550Z,17.73
2018-12-23T05:13:58.020Z,18.60
2018-12-23T05:16:24.493Z,17.97
2018-12-23T05:18:50.916Z,18.03
2018-12-23T05:21:17.379Z,17.40
2018-12-23T05:23:43.867Z,18.53
2018-12-23T05:26:10.359Z,16.90
2018-12-23T05:28:36.824Z,17.27
2018-12-23T05:31:03.659Z,17.67
2018-12-23T05:33:30.156Z,19.50
2018-12-23T05:35:56.573Z,18.90
2018-12-23T05:38:23.101Z,19.23
2018-12-23T05:40:51.414Z,19.00
2018-12-23T05:43:18.125Z,19.10
2018-12-23T05:45:44.597Z,19.37
2018-12-23T05:48:11.059Z,18.60
2018-12-23T05:50:37.670Z,17.80
2018-12-23T05:53:04.139Z,19.23
2018-12-23T05:55:30.796Z,21.10
2018-12-23T05:57:57.298Z,19.67
2018-12-23T06:00:24.182Z,21.10
2018-12-23T06:02:50.649Z,19.47
2018-12-23T06:05:17.159Z,20.57
2018-12-23T06:07:43.643Z,19.03
2018-12-23T06:10:10.144Z,20.17
2018-12-23T06:12:36.656Z,18.67
2018-12-23T06:15:03.540Z,18.50
2018-12-23T06:17:29.961Z,17.13
2018-12-23T06:19:56.502Z,17.77
2018-12-23T06:22:23.438Z,17.60
2018-12-23T06:24:50.401Z,17.70
2018-12-23T06:27:17.048Z,16.60
2018-12-23T06:29:43.504Z,17.53
2018-12-23T06:32:10.065Z,15.97
2018-12-23T06:34:36.543Z,16.30
2018-12-23T06:37:10.028Z,16.10
2018-12-23T06:39:31.771Z,16.53
2018-12-23T06:41:58.602Z,16.97
2018-12-23T06:44:25.113Z,16.17
2018-12-23T06:46:51.683Z,17.30
2018-12-23T06:49:18.386Z,16.83
2018-12-23T06:51:44.797Z,16.00
2018-12-23T06:54:11.596Z,17.03
2018-12-23T06:56:38.084Z,17.33
2018-12-23T06:59:04.601Z,16.10
2018-12-23T07:01:31.106Z,16.67
2018-12-23T07:03:57.578Z,16.43
2018-12-23T07:06:24.057Z,17.50
2018-12-23T07:08:50.474Z,17.03
2018-12-23T07:11:16.925Z,17.43
2018-12-23T07:13:43.447Z,17.17
2018-12-23T07:16:09.905Z,15.73
2018-12-23T07:18:36.418Z,14.77
2018-12-23T07:21:02.926Z,16.07
2018-12-23T07:23:29.433Z,14.80
2018-12-23T07:25:55.839Z,15.97
2018-12-23T07:28:22.701Z,15.60
2018-12-23T07:30:49.110Z,15.70
2018-12-23T07:33:15.734Z,14.57
2018-12-23T07:35:42.409Z,15.57
2018-12-23T07:38:08.822Z,15.10
2018-12-23T07:40:35.337Z,15.50
2018-12-23T07:43:02.177Z,15.83
2018-12-23T07:45:28.716Z,16.87
2018-12-23T07:47:56.270Z,17.40
2018-12-23T07:50:22.701Z,15.73
2018-12-23T07:52:49.126Z,15.20
2018-12-23T07:55:15.564Z,15.13
2018-12-23T07:57:42.674Z,16.00
2018-12-23T08:00:09.448Z,14.43
2018-12-23T08:02:36.335Z,15.30
2018-12-23T08:05:03.275Z,14.43
2018-12-23T08:07:36.123Z,13.47
2018-12-23T08:09:58.950Z,13.10
2018-12-23T08:12:25.382Z,14.10
2018-12-23T08:14:51.840Z,14.37
2018-12-23T08:17:18.660Z,14.00
2018-12-23T08:19:45.107Z,12.57
2018-12-23T08:22:11.592Z,11.97
2018-12-23T08:24:38.061Z,11.30
2018-12-23T08:27:04.523Z,11.07
2018-12-23T08:29:32.360Z,10.17
2018-12-23T08:31:58.950Z,11.10
2018-12-23T08:34:25.569Z,10.13
2018-12-23T08:36:51.993Z,9.70
2018-12-23T08:39:18.485Z,10.80
2018-12-23T08:41:44.972Z,9.70
2018-12-23T08:44:11.765Z,9.80
2018-12-23T08:46:39.224Z,9.80
2018-12-23T08:49:06.275Z,8.63
2018-12-23T08:51:33.120Z,9.60
2018-12-23T08:53:59.602Z,9.50
2018-12-23T08:56:26.117Z,8.70
2018-12-23T08:58:52.734Z,9.03
2018-12-23T09:01:19.476Z,8.50
2018-12-23T09:03:46.027Z,8.00
2018-12-23T09:06:12.446Z,8.43
2018-12-23T09:08:39.386Z,9.43
2018-12-23T09:11:06.220Z,8.30
2018-12-23T09:13:33.708Z,8.30
2018-12-23T09:16:00.219Z,8.27
2018-12-23T09:18:26.827Z,8.43
2018-12-23T09:20:53.422Z,7.63
2018-12-23T09:23:19.905Z,8.07
2018-12-23T09:25:46.422Z,8.33
2018-12-23T09:28:12.795Z,6.93
2018-12-23T09:30:39.379Z,7.57
2018-12-23T09:33:05.803Z,7.63
2018-12-23T09:35:32.430Z,7.90
2018-12-23T09:38:01.543Z,7.80
2018-12-23T09:40:28.139Z,7.30
2018-12-23T09:42:54.680Z,7.60
2018-12-23T09:45:21.324Z,7.73
2018-12-23T09:47:47.743Z,7.90
2018-12-23T09:50:15.402Z,8.53
2018-12-23T09:52:42.146Z,7.67
2018-12-23T09:55:09.133Z,7.27
2018-12-23T09:57:35.537Z,7.90
2018-12-23T10:00:02.192Z,6.83
2018-12-23T10:02:28.872Z,7.60
2018-12-23T10:04:55.399Z,7.13
2018-12-23T10:07:22.063Z,7.47
2018-12-23T10:09:48.490Z,7.27
2018-12-23T10:12:15.052Z,8.23
2018-12-23T10:14:41.573Z,8.57
2018-12-23T10:17:08.127Z,7.37
2018-12-23T10:19:34.677Z,7.60
2018-12-23T10:22:02.155Z,8.20
2018-12-23T10:24:28.632Z,9.33
2018-12-23T10:26:56.854Z,9.67
2018-12-23T10:29:23.413Z,8.57
2018-12-23T10:31:49.844Z,8.17
2018-12-23T10:34:16.418Z,8.17
2018-12-23T10:36:42.916Z,7.73
2018-12-23T10:39:09.657Z,9.10
2018-12-23T10:41:36.418Z,8.63
2018-12-23T10:44:03.093Z,7.80
2018-12-23T10:46:29.603Z,8.80
2018-12-23T10:48:56.662Z,9.47
2018-12-23T10:51:23.311Z,9.87
2018-12-23T10:53:49.877Z,9.10
2018-12-23T10:56:16.350Z,8.53
2018-12-23T10:58:43.202Z,8.63
2018-12-23T11:01:09.792Z,9.97
2018-12-23T11:03:36.297Z,10.27
2018-12-23T11:06:02.967Z,11.83
2018-12-23T11:08:29.927Z,12.20
2018-12-23T11:10:56.386Z,12.83
2018-12-23T11:13:22.844Z,13.80
2018-12-23T11:15:49.396Z,12.87
2018-12-23T11:18:16.168Z,12.37
2018-12-23T11:20:43.139Z,12.30
2018-12-23T11:23:09.773Z,11.67
2018-12-23T11:25:36.277Z,10.73
2018-12-23T11:28:02.844Z,10.80
2018-12-23T11:30:29.820Z,10.83
2018-12-23T11:32:56.380Z,12.53
2018-12-23T11:35:22.996Z,11.23
2018-12-23T11:37:49.799Z,13.13
2018-12-23T11:40:16.534Z,13.40
2018-12-23T11:42:43.566Z,11.93
2018-12-23T11:45:10.184Z,12.10
2018-12-23T11:47:37.088Z,12.40
2018-12-23T11:50:03.899Z,11.67
2018-12-23T11:52:30.319Z,11.27
2018-12-23T11:54:56.860Z,11.53
2018-12-23T11:57:23.648Z,12.60
2018-12-23T11:59:50.040Z,12.10
2018-12-23T12:02:16.948Z,12.00
2018-12-23T12:04:43.412Z,13.30
2018-12-23T12:07:09.921Z,11.07
2018-12-23T12:09:37.943Z,13.50
2018-12-23T12:12:04.656Z,12.07
2018-12-23T12:14:31.137Z,11.73
2018-12-23T12:16:57.679Z,10.83
2018-12-23T12:19:24.100Z,10.17
2018-12-23T12:21:50.514Z,10.30
2018-12-23T12:24:17.437Z,8.33
2018-12-23T12:26:43.928Z,9.00
2018-12-23T12:29:11.000Z,9.17
2018-12-23T12:31:37.698Z,9.67
2018-12-23T12:34:04.718Z,8.77
2018-12-23T12:36:31.274Z,8.70
2018-12-23T12:38:58.609Z,9.20
2018-12-23T12:41:25.194Z,9.50
2018-12-23T12:43:51.726Z,9.13
2018-12-23T12:46:18.253Z,8.80
2018-12-23T12:48:44.732Z,9.87
2018-12-23T12:51:11.296Z,10.27
2018-12-23T12:53:37.757Z,9.77
2018-12-23T12:56:04.220Z,8.87
2018-12-23T12:58:31.419Z,8.10
2018-12-23T13:00:58.045Z,7.97
2018-12-23T13:03:24.599Z,8.63
2018-12-23T13:05:51.263Z,7.63
2018-12-23T13:08:17.760Z,7.23
2018-12-23T13:10:44.366Z,7.00
2018-12-23T13:13:12.384Z,6.33
2018-12-23T13:15:38.765Z,6.53
2018-12-23T13:18:05.213Z,6.60
2018-12-23T13:20:31.687Z,6.60
2018-12-23T13:22:58.194Z,7.50
2018-12-23T13:25:24.626Z,7.57
2018-12-23T13:27:51.086Z,7.90
2018-12-23T13:30:17.498Z,9.03
2018-12-23T13:32:43.951Z,9.20
2018-12-23T13:35:10.636Z,8.43
2018-12-23T13:37:37.189Z,9.47
2018-12-23T13:40:12.474Z,8.53
2018-12-23T13:42:50.776Z,8.73
2018-12-23T13:45:29.458Z,8.87
2018-12-23T13:47:59.253Z,9.20
2018-12-23T13:50:31.512Z,8.90
2018-12-23T13:53:05.031Z,8.37
2018-12-23T13:55:49.498Z,8.43
2018-12-23T13:58:23.867Z,8.87
2018-12-23T14:01:12.299Z,7.93
2018-12-23T14:03:48.651Z,9.10
2018-12-23T14:06:36.923Z,8.80
2018-12-23T14:09:17.088Z,7.90
2018-12-23T14:11:50.422Z,8.00
2018-12-23T14:14:16.961Z,7.97
2018-12-23T14:16:43.630Z,7.97
2018-12-23T14:19:10.173Z,8.77
2018-12-23T14:21:36.620Z,8.87
2018-12-23T14:24:03.211Z,8.57
2018-12-23T14:26:30.224Z,8.60
2018-12-23T14:28:57.041Z,9.13
2018-12-23T14:31:23.472Z,7.40
2018-12-23T14:33:49.851Z,7.90
2018-12-23T14:36:16.365Z,8.80
2018-12-23T14:38:43.203Z,7.83
2018-12-23T14:41:10.069Z,8.43
2018-12-23T14:43:36.643Z,8.37
2018-12-23T14:46:03.287Z,7.83
2018-12-23T14:48:30.141Z,8.60
2018-12-23T14:50:56.796Z,7.97
2018-12-23T14:53:23.672Z,7.77
2018-12-23T14:55:50.150Z,7.97
2018-12-23T14:58:16.636Z,7.47
2018-12-23T15:00:44.342Z,7.53
2018-12-23T15:03:10.978Z,7.27
2018-12-23T15:05:37.709Z,6.10
2018-12-23T15:08:04.189Z,6.90
2018-12-23T15:10:30.887Z,7.47
2018-12-23T15:12:57.404Z,6.80
2018-12-23T15:15:24.132Z,7.10
2018-12-23T15:17:50.715Z,6.80
2018-12-23T15:20:17.260Z,7.07
2018-12-23T15:22:43.727Z,7.40
2018-12-23T15:25:10.356Z,7.73
2018-12-23T15:27:36.741Z,6.70
2018-12-23T15:30:03.797Z,7.97
2018-12-23T15:32:30.637Z,6.93
2018-12-23T15:34:57.989Z,6.97
2018-12-23T15:37:24.855Z,7.63
2018-12-23T15:39:51.399Z,7.63
2018-12-23T15:42:17.855Z,8.03
2018-12-23T15:44:44.343Z,8.13
2018-12-23T15:47:11.812Z,8.23
2018-12-23T15:49:38.231Z,8.80
2018-12-23T15:52:05.170Z,10.07
2018-12-23T15:54:31.812Z,10.50
2018-12-23T15:56:58.772Z,9.80
2018-12-23T15:59:26.021Z,9.87
2018-12-23T16:01:52.538Z,10.43
2018-12-23T16:04:19.031Z,9.80
2018-12-23T16:06:45.864Z,9.83
2018-12-23T16:09:12.281Z,9.47
2018-12-23T16:11:38.836Z,9.27
2018-12-23T16:14:06.508Z,8.87
2018-12-23T16:16:33.226Z,7.77
2018-12-23T16:18:59.979Z,8.97
2018-12-23T16:21:26.743Z,8.27
2018-12-23T16:23:53.206Z,9.63
2018-12-23T16:26:19.725Z,9.63
2018-12-23T16:28:46.276Z,9.60
2018-12-23T16:31:13.146Z,10.27
2018-12-23T16:33:40.290Z,9.77
2018-12-23T16:36:06.885Z,9.00
2018-12-23T16:38:33.789Z,7.57
2018-12-23T16:41:00.238Z,8.00
2018-12-23T16:43:27.492Z,7.60
2018-12-23T16:45:53.886Z,7.97
2018-12-23T16:48:20.524Z,7.77
2018-12-23T16:50:48.195Z,8.60
2018-12-23T16:53:14.784Z,9.30
2018-12-23T16:55:41.190Z,8.70
2018-12-23T16:58:07.911Z,8.33
2018-12-23T17:00:34.529Z,8.57
2018-12-23T17:03:01.070Z,9.07
2018-12-23T17:05:28.090Z,9.53
2018-12-23T17:07:55.017Z,10.17
2018-12-23T17:10:22.031Z,9.47
2018-12-23T17:12:48.539Z,9.20
2018-12-23T17:15:15.053Z,10.10
2018-12-23T17:17:41.811Z,9.57
2018-12-23T17:20:10.009Z,9.77
2018-12-23T17:22:36.410Z,9.47
2018-12-23T17:25:03.666Z,10.00
2018-12-23T17:27:30.589Z,10.73
2018-12-23T17:29:57.308Z,10.67
2018-12-23T17:32:24.117Z,12.20
2018-12-23T17:34:51.706Z,11.57
2018-12-23T17:37:18.202Z,11.90
2018-12-23T17:39:44.663Z,12.50
2018-12-23T17:42:11.087Z,11.50
2018-12-23T17:44:37.862Z,13.60
2018-12-23T17:47:04.269Z,12.97
2018-12-23T17:49:30.685Z,13.33
2018-12-23T17:51:57.458Z,13.83
2018-12-23T17:54:24.227Z,13.23
2018-12-23T17:56:50.571Z,13.87
2018-12-23T17:59:17.015Z,13.57
2018-12-23T18:01:43.523Z,13.77
2018-12-23T18:04:10.293Z,13.60
2018-12-23T18:06:36.751Z,14.07
2018-12-23T18:09:04.780Z,14.07
2018-12-23T18:11:31.528Z,20.27
2018-12-23T18:13:58.232Z,19.67
2018-12-23T18:16:24.656Z,17.27
2018-12-23T18:18:51.198Z,16.07
2018-12-23T18:21:17.539Z,13.60
2018-12-23T18:23:43.957Z,15.73
2018-12-23T18:26:10.776Z,15.40
2018-12-23T18:28:37.187Z,15.13
2018-12-23T18:31:04.039Z,16.73
2018-12-23T18:33:30.491Z,16.00
2018-12-23T18:35:56.990Z,14.70
2018-12-23T18:38:23.327Z,16.73
2018-12-23T18:40:49.759Z,19.03
2018-12-23T18:43:16.414Z,17.53
2018-12-23T18:45:42.834Z,18.97
2018-12-23T18:48:09.297Z,19.27
2018-12-23T18:50:36.082Z,17.87
2018-12-23T18:53:03.709Z,18.50
2018-12-23T18:55:30.877Z,17.80
2018-12-23T18:57:57.200Z,16.40
2018-12-23T19:00:23.678Z,17.87
2018-12-23T19:02:50.446Z,16.47
2018-12-23T19:05:16.903Z,16.57
2018-12-23T19:07:43.703Z,18.27
2018-12-23T19:10:15.763Z,17.53
2018-12-23T19:16:40.908Z,17.90
2018-12-23T19:19:29.297Z,17.47
2018-12-23T19:22:15.505Z,19.23
2018-12-23T19:24:48.636Z,18.00
2018-12-23T19:27:27.508Z,20.93
2018-12-23T19:30:22.234Z,21.90
2018-12-23T19:32:53.842Z,19.57
2018-12-23T19:35:41.144Z,21.70
2018-12-23T19:38:29.789Z,19.43
2018-12-23T19:40:59.973Z,21.03
2018-12-23T19:43:51.518Z,21.37
2018-12-23T19:46:27.484Z,25.03
2018-12-23T19:49:00.788Z,22.40
2018-12-23T19:51:48.553Z,20.57
2018-12-23T19:54:21.398Z,23.37
2018-12-23T19:56:57.554Z,22.33
2018-12-23T19:59:46.339Z,21.93
2018-12-23T20:02:36.255Z,24.73
2018-12-23T20:05:27.686Z,19.67
2018-12-23T20:08:14.636Z,17.43
2018-12-23T20:10:46.116Z,18.17
2018-12-23T20:13:28.467Z,15.43
2018-12-23T20:16:04.607Z,17.60
2018-12-23T20:18:51.792Z,14.77
2018-12-23T20:21:24.911Z,13.83
2018-12-23T20:24:01.167Z,12.73
2018-12-23T20:26:40.543Z,14.13
2018-12-23T20:29:27.411Z,14.50
2018-12-23T20:31:56.166Z,16.13
2018-12-23T20:34:32.160Z,15.30
2018-12-23T20:37:02.407Z,16.10
2018-12-23T20:39:48.260Z,17.03
2018-12-23T20:42:18.504Z,19.47
2018-12-23T20:45:14.620Z,16.00
2018-12-23T20:47:56.875Z,11.73
2018-12-23T20:50:39.189Z,9.67
2018-12-23T20:53:26.022Z,10.73
2018-12-23T20:55:56.446Z,9.90
2018-12-23T20:58:26.636Z,10.80
2018-12-23T21:00:59.887Z,10.83
2018-12-23T21:03:42.943Z,10.60
2018-12-23T21:06:31.653Z,9.37
2018-12-23T21:09:12.570Z,9.57
2018-12-23T21:11:57.893Z,9.77
2018-12-23T21:14:47.764Z,9.77
2018-12-23T21:17:27.091Z,10.13
2018-12-23T21:20:06.371Z,10.40
2018-12-23T21:22:42.629Z,10.33
2018-12-23T21:25:25.174Z,10.03
2018-12-23T21:28:01.416Z,10.97
2018-12-23T21:30:52.939Z,10.20
2018-12-23T21:33:23.164Z,10.63
2018-12-23T21:35:56.469Z,9.27
2018-12-23T21:38:57.204Z,10.97
2018-12-23T21:41:27.469Z,9.63
2018-12-23T21:44:14.241Z,9.93
2018-12-23T21:47:11.357Z,9.10
2018-12-23T21:50:13.317Z,8.17
2018-12-23T21:52:52.040Z,8.33
2018-12-23T21:55:56.666Z,7.63
2018-12-23T21:59:00.914Z,8.00
2018-12-23T22:01:58.513Z,6.73
2018-12-23T22:04:43.626Z,6.17
2018-12-23T22:07:25.427Z,6.40
2018-12-23T22:09:58.617Z,7.37
2018-12-23T22:12:31.413Z,7.60
2018-12-23T22:14:57.946Z,7.30
2018-12-23T22:17:26.444Z,7.93
2018-12-23T22:19:52.973Z,8.50
2018-12-23T22:22:19.521Z,6.77
2018-12-23T22:24:46.089Z,7.50
2018-12-23T22:27:12.470Z,9.53
2018-12-23T22:29:39.042Z,7.47
2018-12-23T22:32:05.748Z,6.30
2018-12-23T22:34:32.192Z,6.30
2018-12-23T22:36:58.715Z,6.00
2018-12-23T22:39:25.139Z,5.83
2018-12-23T22:41:51.565Z,5.67
2018-12-23T22:44:18.093Z,5.97
2018-12-23T22:46:44.486Z,6.43
2018-12-23T22:49:10.977Z,6.73
2018-12-23T22:51:37.593Z,6.03
2018-12-23T22:54:03.988Z,6.27
2018-12-23T22:56:31.313Z,6.93
2018-12-23T22:58:57.833Z,6.70
2018-12-23T23:01:24.741Z,8.30
2018-12-23T23:03:51.206Z,8.33
2018-12-23T23:06:17.725Z,9.00
2018-12-23T23:08:44.387Z,8.77
2018-12-23T23:11:11.013Z,9.83
2018-12-23T23:13:37.602Z,9.23
2018-12-23T23:16:04.712Z,10.27
2018-12-23T23:18:31.112Z,10.90
2018-12-23T23:20:57.943Z,10.57
2018-12-23T23:23:24.530Z,10.63
2018-12-23T23:25:51.416Z,9.23
2018-12-23T23:28:17.961Z,9.40
2018-12-23T23:30:44.833Z,9.07
2018-12-23T23:33:11.846Z,9.30
2018-12-23T23:35:38.842Z,9.10
2018-12-23T23:38:05.294Z,7.67
2018-12-23T23:40:31.858Z,7.47
2018-12-23T23:42:58.429Z,7.30
2018-12-23T23:45:25.197Z,5.97
2018-12-23T23:47:51.715Z,6.07
2018-12-23T23:50:18.188Z,5.13
2018-12-23T23:52:44.726Z,4.90
2018-12-23T23:55:11.765Z,4.93
2018-12-23T23:57:38.390Z,5.40
